sensor_id;sensor_type;location;lat;lon;timestamp;P1;durP1;ratioP1;P2;durP2;ratioP2
3309;SDS011;1667;53.238;10.394;2022-09-09T00:00:20;83.90;;;77.43;;
3309;SDS011;1667;53.238;10.394;2022-09-09T00:05:22;33.87;;;30.47;;
3309;SDS011;1667;53.238;10.394;2022-09-09T00:10:28;49.47;;;45.30;;
3309;SDS011;1667;53.238;10.394;2022-09-09T00:15:28;59.47;;;54.80;;
3309;SDS011;1667;53.238;10.394;2022-09-09T00:20:34;84.87;;;78.40;;
3309;SDS011;1667;53.238;10.394;2022-09-09T00:25:43;71.60;;;65.37;;
3309;SDS011;1667;53.238;10.394;2022-09-09T00:30:48;67.60;;;61.70;;
3309;SDS011;1667;53.238;10.394;2022-09-09T00:35:48;100.97;;;94.23;;
3309;SDS011;1667;53.238;10.394;2022-09-09T00:40:49;136.23;;;127.63;;
3309;SDS011;1667;53.238;10.394;2022-09-09T00:45:57;100.40;;;93.70;;
3309;SDS011;1667;53.238;10.394;2022-09-09T00:51:15;93.57;;;87.10;;
3309;SDS011;1667;53.238;10.394;2022-09-09T00:56:20;70.37;;;65.13;;
3309;SDS011;1667;53.238;10.394;2022-09-09T01:01:24;57.77;;;52.73;;
3309;SDS011;1667;53.238;10.394;2022-09-09T01:06:26;103.33;;;95.53;;
3309;SDS011;1667;53.238;10.394;2022-09-09T01:11:31;183.53;;;172.20;;
3309;SDS011;1667;53.238;10.394;2022-09-09T01:16:42;177.47;;;165.97;;
3309;SDS011;1667;53.238;10.394;2022-09-09T01:21:46;85.30;;;78.23;;
3309;SDS011;1667;53.238;10.394;2022-09-09T01:26:56;39.77;;;29.00;;
3309;SDS011;1667;53.238;10.394;2022-09-09T01:31:57;114.17;;;104.90;;
3309;SDS011;1667;53.238;10.394;2022-09-09T01:36:59;76.63;;;71.00;;
3309;SDS011;1667;53.238;10.394;2022-09-09T01:42:03;88.20;;;82.27;;
3309;SDS011;1667;53.238;10.394;2022-09-09T01:47:04;88.03;;;81.67;;
3309;SDS011;1667;53.238;10.394;2022-09-09T01:52:06;76.80;;;71.30;;
3309;SDS011;1667;53.238;10.394;2022-09-09T01:57:11;157.83;;;147.53;;
3309;SDS011;1667;53.238;10.394;2022-09-09T02:02:18;57.23;;;52.77;;
3309;SDS011;1667;53.238;10.394;2022-09-09T02:07:35;51.57;;;46.80;;
3309;SDS011;1667;53.238;10.394;2022-09-09T02:12:53;71.23;;;65.40;;
3309;SDS011;1667;53.238;10.394;2022-09-09T02:17:58;67.80;;;62.33;;
3309;SDS011;1667;53.238;10.394;2022-09-09T02:22:58;70.73;;;65.70;;
3309;SDS011;1667;53.238;10.394;2022-09-09T02:28:00;41.87;;;38.00;;
3309;SDS011;1667;53.238;10.394;2022-09-09T02:33:01;66.80;;;61.57;;
3309;SDS011;1667;53.238;10.394;2022-09-09T02:38:12;91.93;;;85.30;;
3309;SDS011;1667;53.238;10.394;2022-09-09T02:43:24;78.77;;;73.03;;
3309;SDS011;1667;53.238;10.394;2022-09-09T02:48:25;53.00;;;48.30;;
3309;SDS011;1667;53.238;10.394;2022-09-09T02:53:29;181.30;;;169.67;;
3309;SDS011;1667;53.238;10.394;2022-09-09T02:58:35;74.83;;;69.03;;
3309;SDS011;1667;53.238;10.394;2022-09-09T03:03:35;72.77;;;67.60;;
3309;SDS011;1667;53.238;10.394;2022-09-09T03:08:38;133.63;;;124.97;;
3309;SDS011;1667;53.238;10.394;2022-09-09T03:13:50;97.33;;;90.47;;
3309;SDS011;1667;53.238;10.394;2022-09-09T03:18:50;49.23;;;44.90;;
3309;SDS011;1667;53.238;10.394;2022-09-09T03:23:49;126.03;;;117.80;;
3309;SDS011;1667;53.238;10.394;2022-09-09T03:28:47;121.13;;;113.17;;
3309;SDS011;1667;53.238;10.394;2022-09-09T03:33:50;138.40;;;129.73;;
3309;SDS011;1667;53.238;10.394;2022-09-09T03:38:50;209.03;;;196.33;;
3309;SDS011;1667;53.238;10.394;2022-09-09T03:43:50;132.03;;;123.67;;
3309;SDS011;1667;53.238;10.394;2022-09-09T03:48:49;328.57;;;310.40;;
3309;SDS011;1667;53.238;10.394;2022-09-09T03:53:48;136.70;;;128.07;;
3309;SDS011;1667;53.238;10.394;2022-09-09T03:58:47;294.40;;;275.70;;
3309;SDS011;1667;53.238;10.394;2022-09-09T04:03:46;408.47;;;382.13;;
3309;SDS011;1667;53.238;10.394;2022-09-09T04:08:45;103.07;;;95.37;;
3309;SDS011;1667;53.238;10.394;2022-09-09T04:13:45;86.93;;;80.83;;
3309;SDS011;1667;53.238;10.394;2022-09-09T04:18:43;105.53;;;98.50;;
3309;SDS011;1667;53.238;10.394;2022-09-09T04:23:45;182.87;;;172.30;;
3309;SDS011;1667;53.238;10.394;2022-09-09T04:28:44;170.77;;;159.33;;
3309;SDS011;1667;53.238;10.394;2022-09-09T04:33:46;139.63;;;130.63;;
3309;SDS011;1667;53.238;10.394;2022-09-09T04:38:47;275.03;;;257.73;;
3309;SDS011;1667;53.238;10.394;2022-09-09T04:43:46;141.60;;;132.83;;
3309;SDS011;1667;53.238;10.394;2022-09-09T04:48:45;241.93;;;227.00;;
3309;SDS011;1667;53.238;10.394;2022-09-09T04:53:47;137.70;;;129.40;;
3309;SDS011;1667;53.238;10.394;2022-09-09T04:58:48;167.27;;;156.50;;
3309;SDS011;1667;53.238;10.394;2022-09-09T05:03:49;112.37;;;104.90;;
3309;SDS011;1667;53.238;10.394;2022-09-09T05:08:52;202.37;;;189.87;;
3309;SDS011;1667;53.238;10.394;2022-09-09T05:13:54;138.77;;;130.23;;
3309;SDS011;1667;53.238;10.394;2022-09-09T05:18:53;376.43;;;352.90;;
3309;SDS011;1667;53.238;10.394;2022-09-09T05:23:53;208.57;;;196.33;;
3309;SDS011;1667;53.238;10.394;2022-09-09T05:28:53;176.90;;;166.67;;
3309;SDS011;1667;53.238;10.394;2022-09-09T05:33:51;86.30;;;80.20;;
3309;SDS011;1667;53.238;10.394;2022-09-09T05:38:50;165.07;;;155.37;;
3309;SDS011;1667;53.238;10.394;2022-09-09T05:43:51;228.67;;;215.07;;
3309;SDS011;1667;53.238;10.394;2022-09-09T05:48:51;185.63;;;174.73;;
3309;SDS011;1667;53.238;10.394;2022-09-09T05:53:56;160.60;;;151.70;;
3309;SDS011;1667;53.238;10.394;2022-09-09T05:59:00;358.70;;;337.97;;
3309;SDS011;1667;53.238;10.394;2022-09-09T06:03:59;485.77;;;456.20;;
3309;SDS011;1667;53.238;10.394;2022-09-09T06:08:58;287.27;;;271.73;;
3309;SDS011;1667;53.238;10.394;2022-09-09T06:14:04;341.30;;;320.13;;
3309;SDS011;1667;53.238;10.394;2022-09-09T06:19:03;184.73;;;174.13;;
3309;SDS011;1667;53.238;10.394;2022-09-09T06:24:03;255.60;;;239.40;;
3309;SDS011;1667;53.238;10.394;2022-09-09T06:29:05;99.17;;;92.53;;
3309;SDS011;1667;53.238;10.394;2022-09-09T06:34:05;368.70;;;347.03;;
3309;SDS011;1667;53.238;10.394;2022-09-09T06:39:07;168.70;;;158.03;;
3309;SDS011;1667;53.238;10.394;2022-09-09T06:44:12;263.10;;;248.83;;
3309;SDS011;1667;53.238;10.394;2022-09-09T06:49:11;237.30;;;223.20;;
3309;SDS011;1667;53.238;10.394;2022-09-09T06:54:10;238.40;;;224.60;;
3309;SDS011;1667;53.238;10.394;2022-09-09T06:59:14;242.53;;;228.67;;
3309;SDS011;1667;53.238;10.394;2022-09-09T07:04:14;367.10;;;345.83;;
3309;SDS011;1667;53.238;10.394;2022-09-09T07:09:14;159.83;;;150.10;;
3309;SDS011;1667;53.238;10.394;2022-09-09T07:14:18;177.07;;;166.03;;
3309;SDS011;1667;53.238;10.394;2022-09-09T07:19:21;287.33;;;270.23;;
3309;SDS011;1667;53.238;10.394;2022-09-09T07:24:22;254.73;;;240.47;;
3309;SDS011;1667;53.238;10.394;2022-09-09T07:29:22;116.23;;;109.00;;
3309;SDS011;1667;53.238;10.394;2022-09-09T07:34:21;402.47;;;378.17;;
3309;SDS011;1667;53.238;10.394;2022-09-09T07:39:20;238.50;;;225.50;;
3309;SDS011;1667;53.238;10.394;2022-09-09T07:44:23;666.33;;;620.13;;
3309;SDS011;1667;53.238;10.394;2022-09-09T07:49:37;153.50;;;144.20;;
3309;SDS011;1667;53.238;10.394;2022-09-09T07:54:37;300.33;;;283.07;;
3309;SDS011;1667;53.238;10.394;2022-09-09T07:59:37;565.40;;;527.40;;
3309;SDS011;1667;53.238;10.394;2022-09-09T08:04:37;374.33;;;352.73;;
3309;SDS011;1667;53.238;10.394;2022-09-09T08:09:35;104.33;;;97.40;;
3309;SDS011;1667;53.238;10.394;2022-09-09T08:14:41;157.20;;;148.03;;
3309;SDS011;1667;53.238;10.394;2022-09-09T08:19:39;63.67;;;58.90;;
3309;SDS011;1667;53.238;10.394;2022-09-09T08:24:42;50.13;;;46.20;;
3309;SDS011;1667;53.238;10.394;2022-09-09T08:29:43;103.53;;;97.27;;
3309;SDS011;1667;53.238;10.394;2022-09-09T08:34:41;81.93;;;76.63;;
3309;SDS011;1667;53.238;10.394;2022-09-09T08:39:48;26.27;;;23.90;;
3309;SDS011;1667;53.238;10.394;2022-09-09T08:44:58;27.03;;;24.33;;
3309;SDS011;1667;53.238;10.394;2022-09-09T08:50:13;52.00;;;48.07;;
3309;SDS011;1667;53.238;10.394;2022-09-09T08:55:24;58.27;;;54.30;;
3309;SDS011;1667;53.238;10.394;2022-09-09T09:00:32;80.30;;;74.90;;
3309;SDS011;1667;53.238;10.394;2022-09-09T09:05:37;22.37;;;18.10;;
3309;SDS011;1667;53.238;10.394;2022-09-09T09:10:45;38.13;;;34.97;;
3309;SDS011;1667;53.238;10.394;2022-09-09T09:15:54;83.87;;;78.07;;
3309;SDS011;1667;53.238;10.394;2022-09-09T09:20:58;21.80;;;19.60;;
3309;SDS011;1667;53.238;10.394;2022-09-09T09:26:05;73.93;;;69.07;;
3309;SDS011;1667;53.238;10.394;2022-09-09T09:31:09;22.33;;;16.80;;
3309;SDS011;1667;53.238;10.394;2022-09-09T09:36:12;57.10;;;52.57;;
3309;SDS011;1667;53.238;10.394;2022-09-09T09:41:14;9.83;;;6.73;;
3309;SDS011;1667;53.238;10.394;2022-09-09T09:46:19;52.17;;;48.50;;
3309;SDS011;1667;53.238;10.394;2022-09-09T09:51:26;15.03;;;10.97;;
3309;SDS011;1667;53.238;10.394;2022-09-09T09:56:26;17.23;;;15.40;;
3309;SDS011;1667;53.238;10.394;2022-09-09T10:01:29;13.00;;;10.03;;
3309;SDS011;1667;53.238;10.394;2022-09-09T10:06:34;59.13;;;54.10;;
3309;SDS011;1667;53.238;10.394;2022-09-09T10:11:38;15.80;;;12.37;;
3309;SDS011;1667;53.238;10.394;2022-09-09T10:16:47;16.27;;;14.70;;
3309;SDS011;1667;53.238;10.394;2022-09-09T10:27:23;19.23;;;17.23;;
3309;SDS011;1667;53.238;10.394;2022-09-09T10:32:37;48.23;;;44.33;;
3309;SDS011;1667;53.238;10.394;2022-09-09T10:37:41;20.50;;;18.43;;
3309;SDS011;1667;53.238;10.394;2022-09-09T10:42:48;27.23;;;24.73;;
3309;SDS011;1667;53.238;10.394;2022-09-09T10:48:01;20.10;;;17.27;;
3309;SDS011;1667;53.238;10.394;2022-09-09T10:53:12;16.90;;;13.07;;
3309;SDS011;1667;53.238;10.394;2022-09-09T10:58:17;19.77;;;17.93;;
3309;SDS011;1667;53.238;10.394;2022-09-09T11:03:23;22.10;;;20.07;;
3309;SDS011;1667;53.238;10.394;2022-09-09T11:08:25;13.10;;;4.87;;
3309;SDS011;1667;53.238;10.394;2022-09-09T11:13:26;22.17;;;19.77;;
3309;SDS011;1667;53.238;10.394;2022-09-09T11:18:33;21.70;;;19.70;;
3309;SDS011;1667;53.238;10.394;2022-09-09T11:23:38;12.50;;;7.20;;
3309;SDS011;1667;53.238;10.394;2022-09-09T11:28:43;11.00;;;8.57;;
3309;SDS011;1667;53.238;10.394;2022-09-09T11:34:09;11.90;;;9.00;;
3309;SDS011;1667;53.238;10.394;2022-09-09T11:39:33;16.00;;;10.73;;
3309;SDS011;1667;53.238;10.394;2022-09-09T11:44:47;13.97;;;7.10;;
3309;SDS011;1667;53.238;10.394;2022-09-09T11:49:46;12.40;;;6.70;;
3309;SDS011;1667;53.238;10.394;2022-09-09T11:54:46;15.40;;;13.13;;
3309;SDS011;1667;53.238;10.394;2022-09-09T11:59:49;21.07;;;18.97;;
3309;SDS011;1667;53.238;10.394;2022-09-09T12:04:54;12.53;;;11.00;;
3309;SDS011;1667;53.238;10.394;2022-09-09T12:09:56;16.83;;;5.13;;
3309;SDS011;1667;53.238;10.394;2022-09-09T12:15:00;15.07;;;8.90;;
3309;SDS011;1667;53.238;10.394;2022-09-09T12:20:02;13.83;;;12.30;;
3309;SDS011;1667;53.238;10.394;2022-09-09T12:25:08;15.03;;;11.80;;
3309;SDS011;1667;53.238;10.394;2022-09-09T12:30:18;26.70;;;24.30;;
3309;SDS011;1667;53.238;10.394;2022-09-09T12:35:21;15.13;;;11.03;;
3309;SDS011;1667;53.238;10.394;2022-09-09T12:40:24;15.00;;;9.33;;
3309;SDS011;1667;53.238;10.394;2022-09-09T12:45:24;21.10;;;18.80;;
3309;SDS011;1667;53.238;10.394;2022-09-09T12:50:25;26.87;;;24.47;;
3309;SDS011;1667;53.238;10.394;2022-09-09T12:55:27;14.40;;;10.47;;
3309;SDS011;1667;53.238;10.394;2022-09-09T13:00:27;14.50;;;13.00;;
3309;SDS011;1667;53.238;10.394;2022-09-09T13:05:28;40.00;;;37.00;;
3309;SDS011;1667;53.238;10.394;2022-09-09T13:10:33;21.57;;;19.53;;
3309;SDS011;1667;53.238;10.394;2022-09-09T13:15:50;15.70;;;13.03;;
3309;SDS011;1667;53.238;10.394;2022-09-09T13:20:52;20.47;;;18.70;;
3309;SDS011;1667;53.238;10.394;2022-09-09T13:25:54;15.30;;;13.03;;
3309;SDS011;1667;53.238;10.394;2022-09-09T13:30:58;11.30;;;7.93;;
3309;SDS011;1667;53.238;10.394;2022-09-09T13:36:01;16.27;;;14.60;;
3309;SDS011;1667;53.238;10.394;2022-09-09T13:41:02;16.43;;;14.73;;
3309;SDS011;1667;53.238;10.394;2022-09-09T13:46:02;14.93;;;11.97;;
3309;SDS011;1667;53.238;10.394;2022-09-09T13:51:03;18.80;;;16.93;;
3309;SDS011;1667;53.238;10.394;2022-09-09T13:56:02;33.20;;;30.40;;
3309;SDS011;1667;53.238;10.394;2022-09-09T14:01:00;104.27;;;96.03;;
3309;SDS011;1667;53.238;10.394;2022-09-09T14:05:59;149.70;;;139.57;;
3309;SDS011;1667;53.238;10.394;2022-09-09T14:10:59;74.97;;;69.40;;
3309;SDS011;1667;53.238;10.394;2022-09-09T14:15:57;20.80;;;18.73;;
3309;SDS011;1667;53.238;10.394;2022-09-09T14:20:55;292.10;;;272.10;;
3309;SDS011;1667;53.238;10.394;2022-09-09T14:25:55;16.63;;;15.00;;
3309;SDS011;1667;53.238;10.394;2022-09-09T14:30:55;5.07;;;1.87;;
3309;SDS011;1667;53.238;10.394;2022-09-09T14:35:56;7.90;;;3.83;;
3309;SDS011;1667;53.238;10.394;2022-09-09T14:40:55;10.03;;;6.23;;
3309;SDS011;1667;53.238;10.394;2022-09-09T14:45:56;7.50;;;5.80;;
3309;SDS011;1667;53.238;10.394;2022-09-09T14:50:54;8.63;;;5.80;;
3309;SDS011;1667;53.238;10.394;2022-09-09T14:55:52;10.57;;;9.00;;
3309;SDS011;1667;53.238;10.394;2022-09-09T15:01:05;8.53;;;7.03;;
3309;SDS011;1667;53.238;10.394;2022-09-09T15:06:07;13.23;;;10.70;;
3309;SDS011;1667;53.238;10.394;2022-09-09T15:11:06;21.63;;;19.73;;
3309;SDS011;1667;53.238;10.394;2022-09-09T15:16:07;10.43;;;8.03;;
3309;SDS011;1667;53.238;10.394;2022-09-09T15:21:06;15.80;;;12.03;;
3309;SDS011;1667;53.238;10.394;2022-09-09T15:26:04;16.27;;;14.77;;
3309;SDS011;1667;53.238;10.394;2022-09-09T15:31:06;16.80;;;15.07;;
3309;SDS011;1667;53.238;10.394;2022-09-09T15:36:14;18.07;;;16.17;;
3309;SDS011;1667;53.238;10.394;2022-09-09T15:41:14;18.00;;;15.03;;
3309;SDS011;1667;53.238;10.394;2022-09-09T15:46:27;23.23;;;21.23;;
3309;SDS011;1667;53.238;10.394;2022-09-09T15:51:28;13.70;;;12.33;;
3309;SDS011;1667;53.238;10.394;2022-09-09T15:56:38;36.60;;;33.53;;
3309;SDS011;1667;53.238;10.394;2022-09-09T16:01:38;17.93;;;16.03;;
3309;SDS011;1667;53.238;10.394;2022-09-09T16:06:38;20.27;;;18.33;;
3309;SDS011;1667;53.238;10.394;2022-09-09T16:11:37;25.60;;;23.40;;
3309;SDS011;1667;53.238;10.394;2022-09-09T16:16:36;19.23;;;16.73;;
3309;SDS011;1667;53.238;10.394;2022-09-09T16:21:36;14.43;;;13.07;;
3309;SDS011;1667;53.238;10.394;2022-09-09T16:26:36;19.00;;;17.23;;
3309;SDS011;1667;53.238;10.394;2022-09-09T16:31:36;12.70;;;9.87;;
3309;SDS011;1667;53.238;10.394;2022-09-09T16:36:36;15.37;;;13.10;;
3309;SDS011;1667;53.238;10.394;2022-09-09T16:41:37;14.20;;;12.87;;
3309;SDS011;1667;53.238;10.394;2022-09-09T16:46:36;18.80;;;16.80;;
3309;SDS011;1667;53.238;10.394;2022-09-09T16:51:37;15.30;;;12.03;;
3309;SDS011;1667;53.238;10.394;2022-09-09T16:56:38;20.73;;;18.23;;
3309;SDS011;1667;53.238;10.394;2022-09-09T17:01:38;22.80;;;20.57;;
3309;SDS011;1667;53.238;10.394;2022-09-09T17:06:39;17.17;;;15.47;;
3309;SDS011;1667;53.238;10.394;2022-09-09T17:11:38;20.00;;;18.00;;
3309;SDS011;1667;53.238;10.394;2022-09-09T17:16:36;28.53;;;26.23;;
3309;SDS011;1667;53.238;10.394;2022-09-09T17:21:36;15.90;;;14.27;;
3309;SDS011;1667;53.238;10.394;2022-09-09T17:26:57;13.83;;;12.50;;
3309;SDS011;1667;53.238;10.394;2022-09-09T17:31:55;15.43;;;13.83;;
3309;SDS011;1667;53.238;10.394;2022-09-09T17:36:54;18.70;;;16.87;;
3309;SDS011;1667;53.238;10.394;2022-09-09T17:41:52;16.17;;;14.53;;
3309;SDS011;1667;53.238;10.394;2022-09-09T17:46:52;16.10;;;14.43;;
3309;SDS011;1667;53.238;10.394;2022-09-09T17:51:51;18.67;;;14.23;;
3309;SDS011;1667;53.238;10.394;2022-09-09T17:56:50;21.13;;;19.13;;
3309;SDS011;1667;53.238;10.394;2022-09-09T18:01:48;26.47;;;24.27;;
3309;SDS011;1667;53.238;10.394;2022-09-09T18:06:49;18.70;;;16.90;;
3309;SDS011;1667;53.238;10.394;2022-09-09T18:11:49;27.33;;;25.00;;
3309;SDS011;1667;53.238;10.394;2022-09-09T18:16:49;19.30;;;17.63;;
3309;SDS011;1667;53.238;10.394;2022-09-09T18:21:50;13.33;;;12.07;;
3309;SDS011;1667;53.238;10.394;2022-09-09T18:26:51;22.97;;;21.03;;
3309;SDS011;1667;53.238;10.394;2022-09-09T18:31:50;14.20;;;12.87;;
3309;SDS011;1667;53.238;10.394;2022-09-09T18:36:52;13.63;;;12.33;;
3309;SDS011;1667;53.238;10.394;2022-09-09T18:41:52;17.40;;;15.70;;
3309;SDS011;1667;53.238;10.394;2022-09-09T18:46:51;21.00;;;19.07;;
3309;SDS011;1667;53.238;10.394;2022-09-09T18:51:51;15.47;;;13.90;;
3309;SDS011;1667;53.238;10.394;2022-09-09T18:56:50;26.70;;;24.30;;
3309;SDS011;1667;53.238;10.394;2022-09-09T19:01:49;17.83;;;16.13;;
3309;SDS011;1667;53.238;10.394;2022-09-09T19:06:48;28.47;;;25.63;;
3309;SDS011;1667;53.238;10.394;2022-09-09T19:11:53;30.20;;;27.70;;
3309;SDS011;1667;53.238;10.394;2022-09-09T19:16:51;17.93;;;16.33;;
3309;SDS011;1667;53.238;10.394;2022-09-09T19:21:52;21.03;;;18.83;;
3309;SDS011;1667;53.238;10.394;2022-09-09T19:26:54;44.83;;;41.63;;
3309;SDS011;1667;53.238;10.394;2022-09-09T19:31:54;17.37;;;15.63;;
3309;SDS011;1667;53.238;10.394;2022-09-09T19:37:16;32.67;;;30.07;;
3309;SDS011;1667;53.238;10.394;2022-09-09T19:42:14;16.17;;;12.53;;
3309;SDS011;1667;53.238;10.394;2022-09-09T19:47:13;15.30;;;12.67;;
3309;SDS011;1667;53.238;10.394;2022-09-09T19:52:11;27.60;;;25.33;;
3309;SDS011;1667;53.238;10.394;2022-09-09T19:57:10;22.53;;;20.47;;
3309;SDS011;1667;53.238;10.394;2022-09-09T20:02:09;30.97;;;28.33;;
3309;SDS011;1667;53.238;10.394;2022-09-09T20:07:11;16.60;;;14.83;;
3309;SDS011;1667;53.238;10.394;2022-09-09T20:12:11;24.30;;;21.97;;
3309;SDS011;1667;53.238;10.394;2022-09-09T20:17:09;37.50;;;34.67;;
3309;SDS011;1667;53.238;10.394;2022-09-09T20:22:07;27.83;;;25.53;;
3309;SDS011;1667;53.238;10.394;2022-09-09T20:27:06;22.47;;;20.37;;
3309;SDS011;1667;53.238;10.394;2022-09-09T20:32:06;18.60;;;16.40;;
3309;SDS011;1667;53.238;10.394;2022-09-09T20:37:04;27.17;;;24.77;;
3309;SDS011;1667;53.238;10.394;2022-09-09T20:42:03;20.37;;;18.30;;
3309;SDS011;1667;53.238;10.394;2022-09-09T20:47:03;21.60;;;19.27;;
3309;SDS011;1667;53.238;10.394;2022-09-09T20:52:03;18.60;;;16.70;;
3309;SDS011;1667;53.238;10.394;2022-09-09T20:57:02;31.13;;;28.67;;
3309;SDS011;1667;53.238;10.394;2022-09-09T21:02:03;22.00;;;19.90;;
3309;SDS011;1667;53.238;10.394;2022-09-09T21:07:03;316.03;;;294.57;;
3309;SDS011;1667;53.238;10.394;2022-09-09T21:12:02;26.73;;;24.00;;
3309;SDS011;1667;53.238;10.394;2022-09-09T21:17:03;22.33;;;20.03;;
3309;SDS011;1667;53.238;10.394;2022-09-09T21:22:01;32.33;;;29.63;;
3309;SDS011;1667;53.238;10.394;2022-09-09T21:27:01;48.57;;;45.07;;
3309;SDS011;1667;53.238;10.394;2022-09-09T21:31:59;21.13;;;16.30;;
3309;SDS011;1667;53.238;10.394;2022-09-09T21:36:58;10.33;;;8.50;;
3309;SDS011;1667;53.238;10.394;2022-09-09T21:41:57;15.80;;;12.43;;
3309;SDS011;1667;53.238;10.394;2022-09-09T21:46:57;22.93;;;14.10;;
3309;SDS011;1667;53.238;10.394;2022-09-09T21:51:56;24.40;;;21.87;;
3309;SDS011;1667;53.238;10.394;2022-09-09T21:56:54;10.03;;;6.53;;
3309;SDS011;1667;53.238;10.394;2022-09-09T22:01:52;52.47;;;48.30;;
3309;SDS011;1667;53.238;10.394;2022-09-09T22:06:52;80.37;;;74.67;;
3309;SDS011;1667;53.238;10.394;2022-09-09T22:11:51;19.70;;;17.77;;
3309;SDS011;1667;53.238;10.394;2022-09-09T22:16:50;40.10;;;36.70;;
3309;SDS011;1667;53.238;10.394;2022-09-09T22:21:48;18.50;;;16.57;;
3309;SDS011;1667;53.238;10.394;2022-09-09T22:26:47;38.60;;;35.57;;
3309;SDS011;1667;53.238;10.394;2022-09-09T22:31:50;30.70;;;27.70;;
3309;SDS011;1667;53.238;10.394;2022-09-09T22:36:51;28.73;;;26.17;;
3309;SDS011;1667;53.238;10.394;2022-09-09T22:41:50;26.60;;;24.20;;
3309;SDS011;1667;53.238;10.394;2022-09-09T22:46:48;27.67;;;25.37;;
3309;SDS011;1667;53.238;10.394;2022-09-09T22:51:47;34.60;;;31.70;;
3309;SDS011;1667;53.238;10.394;2022-09-09T22:56:45;19.10;;;14.00;;
3309;SDS011;1667;53.238;10.394;2022-09-09T23:01:45;32.67;;;29.73;;
3309;SDS011;1667;53.238;10.394;2022-09-09T23:06:44;32.77;;;29.63;;
3309;SDS011;1667;53.238;10.394;2022-09-09T23:11:42;47.40;;;43.83;;
3309;SDS011;1667;53.238;10.394;2022-09-09T23:16:42;32.30;;;29.60;;
3309;SDS011;1667;53.238;10.394;2022-09-09T23:21:43;29.80;;;26.87;;
3309;SDS011;1667;53.238;10.394;2022-09-09T23:26:42;26.13;;;23.93;;
3309;SDS011;1667;53.238;10.394;2022-09-09T23:31:42;23.63;;;21.40;;
3309;SDS011;1667;53.238;10.394;2022-09-09T23:36:42;27.30;;;24.80;;
3309;SDS011;1667;53.238;10.394;2022-09-09T23:41:41;28.83;;;26.30;;
3309;SDS011;1667;53.238;10.394;2022-09-09T23:46:40;20.60;;;17.63;;
3309;SDS011;1667;53.238;10.394;2022-09-09T23:51:40;29.43;;;26.97;;
3309;SDS011;1667;53.238;10.394;2022-09-09T23:56:39;31.97;;;29.27;;
